createdAt,value
2018-03-23T00:08:55.886Z,79.2
2018-03-23T00:25:33.387Z,79.6
2018-03-23T00:42:08.871Z,79.2
2018-03-23T00:58:45.170Z,79.2
2018-03-23T01:15:22.000Z,79.2
2018-03-23T01:31:59.021Z,79.2
2018-03-23T01:48:35.249Z,79.2
2018-03-23T02:05:11.389Z,79.2
2018-03-23T02:21:48.260Z,78.8
2018-03-23T02:38:25.037Z,78.8
2018-03-23T02:55:00.602Z,78.8
2018-03-23T03:11:37.016Z,78.8
2018-03-23T03:44:49.386Z,78.8
2018-03-23T04:01:25.906Z,78.8
2018-03-23T04:18:02.167Z,78.8
2018-03-23T04:34:38.261Z,78.8
2018-03-23T04:51:14.510Z,78.8
2018-03-23T05:07:50.796Z,78.8
2018-03-23T05:24:27.821Z,79.6
2018-03-23T05:41:03.872Z,79.6
2018-03-23T05:57:40.278Z,79.6
2018-03-23T06:14:16.282Z,79.6
2018-03-23T06:30:53.176Z,80.0
2018-03-23T06:47:28.762Z,80.4
2018-03-23T07:04:05.674Z,80.8
2018-03-23T07:20:42.342Z,80.8
2018-03-23T07:37:18.933Z,80.8
2018-03-23T07:53:55.101Z,80.8
2018-03-23T08:10:31.895Z,80.8
2018-03-23T08:27:08.144Z,80.4
2018-03-23T09:00:22.541Z,79.6
2018-03-23T09:17:00.452Z,79.2
2018-03-23T09:33:38.866Z,78.8
2018-03-23T09:46:56.746Z,78.4
2018-03-23T10:03:34.785Z,77.2
2018-03-23T10:20:13.333Z,76.8
2018-03-23T10:36:52.492Z,76.0
2018-03-23T10:46:50.791Z,75.6
2018-03-23T11:00:09.499Z,74.0
2018-03-23T11:10:08.476Z,74.0
2018-03-23T11:23:27.566Z,72.4
2018-03-23T11:50:05.986Z,71.6
2018-03-23T12:06:44.712Z,71.6
2018-03-23T12:20:03.918Z,71.2
2018-03-23T12:36:42.898Z,70.4
2018-03-23T13:10:00.291Z,69.6
2018-03-23T13:26:38.640Z,69.6
2018-03-23T13:43:17.206Z,69.2
2018-03-23T13:59:55.438Z,69.2
2018-03-23T14:16:33.858Z,68.4
2018-03-23T14:33:11.954Z,68.4
2018-03-23T14:49:50.028Z,68.8
2018-03-23T15:06:28.004Z,68.4
2018-03-23T15:23:06.145Z,68.4
2018-03-23T15:39:44.534Z,68.4
2018-03-23T15:56:23.302Z,68.4
2018-03-23T16:13:00.675Z,68.0
2018-03-23T16:29:38.400Z,68.8
2018-03-23T16:46:16.123Z,69.2
2018-03-23T17:02:53.721Z,69.6
2018-03-23T17:19:32.004Z,69.2
2018-03-23T17:36:08.674Z,69.6
2018-03-23T17:52:46.120Z,70.0
2018-03-23T18:09:23.403Z,70.0
2018-03-23T18:26:00.968Z,70.4
2018-03-23T18:42:38.306Z,70.4
2018-03-23T18:59:15.714Z,70.4
2018-03-23T19:15:52.839Z,70.4
2018-03-23T19:32:30.095Z,71.2
2018-03-23T19:49:07.313Z,71.2
2018-03-23T20:05:44.809Z,71.2
2018-03-23T20:22:21.818Z,70.8
2018-03-23T20:38:59.674Z,70.8
2018-03-23T20:55:36.910Z,70.4
2018-03-23T21:12:14.060Z,70.0
2018-03-23T21:28:51.440Z,69.6
2018-03-23T21:45:28.204Z,69.2
2018-03-23T22:02:05.175Z,69.2
2018-03-23T22:18:42.127Z,69.2
2018-03-23T22:35:23.530Z,68.4
2018-03-23T22:51:55.998Z,68.4
2018-03-23T23:08:32.603Z,68.8
2018-03-23T23:25:09.239Z,68.8
2018-03-23T23:41:46.239Z,68.8
2018-03-23T23:58:22.056Z,69.2
